Tiempo atmosférico en la estación meteorológica de Castuera , Badajoz (512 m.)

Fecha
DESCASC
Temp. máxima en grados centígrados (hora)
DESCASC
Temp. mínima en grados centígrados (hora)
DESCASC
Temp. media en grados centígrados
DESCASC
Racha de viento máxima en m/sg (hora)
DESCASC
Velocidad máxima media en intervalos de 10 minutos(hora)
DESCASC
Precipitaciones diarias en mm
DESCASC
Precipitaciones de 00:00 a 06:00 en mm
DESCASC
Precipitaciones de 06:00 a 12:00 en mm
DESCASC
Precipitaciones de 12:00 a 18:00 en mm
DESCASC
Precipitaciones de 18:00 a 24:00 en mm
DESCASC
23-11-2017 21.6 (14:30) 13.3 (08:50) 17.5 9.17 (00:40) 6.67 (08:40) 0 0 0 0 0
22-11-2017 22.8 (15:40) 13.4 (06:00) 18.1 8.61 (23:40) 6.39 (06:40) 0 0 0 0 0
21-11-2017 23.4 (14:50) 14.8 (09:20) 19.1 6.94 (06:10) 5.56 (07:00) 0 0 0 0 0
20-11-2017 22.7 (14:50) 11.3 (08:50) 17 7.22 (05:50) 5 (05:50) 0 0 0 0 0
19-11-2017 20.1 (15:50) 9.4 (00:00) 14.8 5 (11:40) 3.61 (22:50) 0 0 0 0 0
18-11-2017 20.7 (13:40) 10.8 (00:00) 15.8 5.83 (03:40) 4.17 (03:10) 0 0 0 0 0
17-11-2017 20.7 (14:00) 10.8 (00:00) 15.8 4.17 (13:30) 2.5 (19:40) 0 0 0 0 0
16-11-2017 18.2 (15:20) 9.8 (00:00) 14 6.67 (13:30) 2.78 (13:50) 0 0 0 0 0
15-11-2017 19.1 (14:30) 9.1 (00:00) 14.1 7.22 (11:00) 5 (11:10) 0 0 0 0 0
14-11-2017 14.6 (16:00) 5.1 (00:00) 9.9 7.5 (00:30) 3.89 (04:00) 0 0 0 0 0
13-11-2017 17.4 (16:30) 7.6 (00:00) 12.5 9.72 (21:10) 6.11 (20:40) 0 0 0 0 0
12-11-2017 19.2 (15:50) 10.6 (00:00) 14.9 6.67 (14:40) 4.44 (14:30) 0 0 0 0 0
11-11-2017 19.4 (14:30) 9.4 (00:00) 14.4 5 (13:30) 2.78 (11:00) 0 0 0 0 0
10-11-2017 16.8 (17:00) 6 (00:00) 11.4 6.94 (01:10) 3.89 (01:10) 0 0 0 0 0
09-11-2017 14.2 (16:00) 6.9 (00:00) 10.5 12.22 (12:20) 5.83 (12:10) 0 0 0 0 0
08-11-2017 17.2 (16:10) 8.3 (00:00) 12.8 9.17 (22:30) 3.61 (23:50) 0 0 0 0 0
07-11-2017 17.8 (16:20) 7.1 (00:00) 12.4 5.56 (01:20) 3.89 (04:30) 0 0 0 0 0
06-11-2017 16.5 (15:20) 9.9 (00:00) 13.2 9.44 (14:00) 5.28 (03:00) 0 0 0 0 0
05-11-2017 17.2 (16:00) 9.8 (00:00) 13.5 5.83 (23:00) 3.33 (22:50) 0 0 0 0 0
04-11-2017 16.9 (13:50) 12.6 (00:00) 14.8 10.83 (16:20) 6.94 (00:20) 7.6 0.8 0.8 6 0
03-11-2017 21.3 (15:00) 13.2 (00:00) 17.2 11.67 (21:20) 7.22 (21:20) 11.2 8.8 1.4 0 1
02-11-2017 20 (15:00) 14 (08:10) 17 11.94 (12:00) 8.61 (12:00) 0 0 0 0 0
01-11-2017 25.1 (15:00) 13.7 (00:00) 19.4 10.28 (05:50) 6.94 (05:50) 0 0 0 0 0
31-10-2017 24.6 (14:50) 13 (00:00) 18.8 6.94 (06:20) 5 (06:10) 0 0 0 0 0
30-10-2017 23.3 (15:50) 13.1 (00:00) 18.2 6.67 (02:00) 5.28 (02:00) 0 0 0 0 0
29-10-2017 24.7 (16:30) 13.8 (00:00) 19.3 7.5 (00:20) 5 (00:20) 0 0 0 0 0
28-10-2017 26.1 (17:10) 17.5 (00:00) 21.8 10 (14:00) 5.28 (12:40) 0 0 0 0 0
27-10-2017 29 (17:00) 18.8 (00:00) 23.9 8.61 (16:10) 4.44 (08:50) 0 0 0 0 0
26-10-2017 27.1 (17:10) 16.7 (00:00) 21.9 6.67 (02:50) 5 (02:40) 0 0 0 0 0
25-10-2017 29.5 (16:50) 14.9 (00:00) 22.2 8.61 (14:20) 6.39 (14:20) 0 0 0 0 0

Gráficas

Temp. máximas Temp. mínimas Temp. medias Precipitaciones Rachas de viento máximas Velocidades máximas media en intervalos de 10 minutos

Datos horarios

Fecha y hora oficial Temperatura (ºC) Velocidad del viento (km/h) Dirección del viento Racha (km/h) Dirección de racha Precipitación (mm) Presión (hPa) Tendencia (hPa) Humedad (%)
2017-11-23 23:00:00 16.8 20 Sur 31 Sur 0 -- -- 33
2017-11-23 22:00:00 16.8 20 Sur 30 Sur 0 -- -- 33
2017-11-23 21:00:00 17.1 18 Sur 28 Sur 0 -- -- 32
2017-11-23 20:00:00 17.4 20 Sur 28 Sur 0 -- -- 30
2017-11-23 19:00:00 17.6 14 Sur 23 Sur 0 -- -- 30
2017-11-23 18:00:00 18.6 15 Sur 24 Sur 0 -- -- 29
2017-11-23 17:00:00 19.7 18 Sur 32 Sur 0 -- -- 29
2017-11-23 16:00:00 20.9 15 Sur 26 Sur 0 -- -- 26
2017-11-23 15:00:00 21.1 13 Sur 31 Sudeste 0 -- -- 27
2017-11-23 14:00:00 20.6 16 Sur 28 Sudeste 0 -- -- 28
2017-11-23 13:00:00 17.9 19 Sur 31 Sur 0 -- -- 33
2017-11-23 12:00:00 15.6 21 Sudeste 29 Sudeste 0 -- -- 40
2017-11-23 11:00:00 15 19 Sudeste 32 Sudeste 0 -- -- 41
2017-11-23 10:00:00 14.1 20 Sudeste 32 Sudeste 0 -- -- 43
2017-11-23 09:00:00 13.4 24 Sudeste 33 Sudeste 0 -- -- 45
2017-11-23 08:00:00 13.5 23 Sudeste 33 Sudeste 0 -- -- 46
2017-11-23 07:00:00 13.6 22 Sudeste 32 Sudeste 0 -- -- 44
2017-11-23 06:00:00 13.8 21 Sudeste 30 Sudeste 0 -- -- 44
2017-11-23 05:00:00 14.3 19 Sudeste 31 Sudeste 0 -- -- 39
2017-11-23 04:00:00 15.3 19 Sur 31 Sur 0 -- -- 33
2017-11-23 03:00:00 15.2 19 Sur 30 Sur 0 -- -- 34
2017-11-23 02:00:00 14.8 18 Sur 27 Sur 0 -- -- 36
2017-11-23 01:00:00 15.4 22 Sur 33 Sur 0 -- -- 33
2017-11-23 00:00:00 15.6 18 Sudeste 31 Sudeste 0 -- -- 30
2017-11-22 23:00:00 15.5 20 Sudeste 31 Sur 0 -- -- 30
2017-11-22 22:00:00 15.5 18 Sur 28 Sur 0 -- -- 32
2017-11-22 21:00:00 15.2 17 Sur 26 Sur 0 -- -- 34
2017-11-22 20:00:00 16.2 15 Sur 25 Sudeste 0 -- -- 31
2017-11-22 19:00:00 17 13 Sur 20 Sur 0 -- -- 30
2017-11-22 18:00:00 18.8 13 Sur 19 Sur 0 -- -- 29
2017-11-22 17:00:00 22 17 Sur 24 Sudoeste 0 -- -- 25
2017-11-22 16:00:00 22.7 15 Sudoeste 25 Sudoeste 0 -- -- 23
2017-11-22 15:00:00 21.4 13 Sudoeste 27 Sudoeste 0 -- -- 24
2017-11-22 14:00:00 21.5 10 Sur 23 Sudeste 0 -- -- 26
2017-11-22 13:00:00 19.9 12 Sur 23 Sudeste 0 -- -- 26
2017-11-22 12:00:00 17.4 15 Sudeste 28 Sudeste 0 -- -- 29
2017-11-22 11:00:00 16.3 19 Sudeste 28 Sudeste 0 -- -- 30
2017-11-22 10:00:00 16.1 12 Sudeste 18 Sudeste 0 -- -- 28
2017-11-22 09:00:00 14.6 11 Sudeste 17 Sudeste 0 -- -- 28
2017-11-22 08:00:00 14.8 17 Sudeste 26 Sudeste 0 -- -- 27
2017-11-22 07:00:00 13.6 20 Sudeste 29 Sudeste 0 -- -- 32
2017-11-22 06:00:00 13.4 23 Sudeste 30 Sudeste 0 -- -- 34
2017-11-22 05:00:00 14.1 19 Sudeste 27 Sudeste 0 -- -- 33
2017-11-22 04:00:00 15.4 12 Sudeste 15 Sudeste 0 -- -- 27
2017-11-22 03:00:00 15.7 10 Sudeste 14 Sudeste 0 -- -- 26
2017-11-22 02:00:00 15.8 10 Sudeste 15 Sudeste 0 -- -- 28
2017-11-22 01:00:00 16.4 15 Sudeste 19 Sudeste 0 -- -- 27
2017-11-22 00:00:00 15.8 12 Sudeste 17 Sudeste 0 -- -- 29
2017-11-21 23:00:00 16.1 12 Sudeste 21 Sudeste 0 -- -- 29
2017-11-21 22:00:00 16.6 14 Sudeste 24 Sudeste 0 -- -- 31
2017-11-21 21:00:00 17 14 Sudeste 21 Sudeste 0 -- -- 30
2017-11-21 20:00:00 16.6 4 Nordeste 13 Sudeste 0 -- -- 30
2017-11-21 19:00:00 18.9 11 Sudeste 15 Este 0 -- -- 26
2017-11-21 18:00:00 19.8 11 Este 14 Este 0 -- -- 25
2017-11-21 17:00:00 20.9 6 Este 13 Nordeste 0 -- -- 24
2017-11-21 16:00:00 21.7 6 Norte 16 Noroeste 0 -- -- 23
2017-11-21 15:00:00 23.1 4 Oeste 14 Sur 0 -- -- 21
2017-11-21 14:00:00 22.4 10 Sur 16 Sudeste 0 -- -- 23
2017-11-21 13:00:00 20.9 9 Sudeste 21 Sudeste 0 -- -- 27
2017-11-21 12:00:00 19.9 11 Sudeste 23 Sudeste 0 -- -- 29
2017-11-21 11:00:00 18.3 14 Sudeste 22 Sudeste 0 -- -- 28
2017-11-21 10:00:00 17.2 14 Sudeste 22 Sudeste 0 -- -- 31
2017-11-21 09:00:00 15.2 12 Sudeste 24 Sudeste 0 -- -- 34
2017-11-21 08:00:00 14.9 18 Sudeste 24 Sudeste 0 -- -- 33
2017-11-21 07:00:00 15.6 20 Sudeste 25 Sudeste 0 -- -- 32
2017-11-21 06:00:00 15.2 17 Sudeste 23 Sudeste 0 -- -- 32
2017-11-21 05:00:00 15.9 15 Sudeste 19 Sudeste 0 -- -- 30
2017-11-21 04:00:00 15.9 12 Sudeste 16 Sudeste 0 -- -- 32
2017-11-21 03:00:00 15.9 11 Sudeste 15 Sudeste 0 -- -- 32
2017-11-21 02:00:00 15.2 6 Sudeste 9 Sudeste 0 -- -- 32
2017-11-21 01:00:00 15.2 6 Sur 11 Sudeste 0 -- -- 32
2017-11-21 00:00:00 16.2 7 Sudeste 11 Sudeste 0 -- -- 32
2017-11-20 23:00:00 16.6 7 Sudeste 10 Sudeste 0 -- -- 30
2017-11-20 22:00:00 17 4 Sudeste 15 Este 0 -- -- 31
2017-11-20 21:00:00 17.9 14 Este 19 Este 0 -- -- 29
2017-11-20 20:00:00 17.8 12 Este 17 Este 0 -- -- 31
2017-11-20 19:00:00 18.2 10 Este 13 Este 0 -- -- 30
2017-11-20 18:00:00 19.3 6 Este 12 Sudeste 0 -- -- 29
2017-11-20 17:00:00 21.6 4 Sudeste 14 Sur 0 -- -- 27
2017-11-20 16:00:00 22.4 6 Sudeste 15 Sudeste 0 -- -- 26
2017-11-20 15:00:00 22.7 5 Sudoeste 13 Sudoeste 0 -- -- 25
2017-11-20 14:00:00 20.3 5 Nordeste 11 Sudoeste 0 -- -- 31
2017-11-20 13:00:00 18.7 5 Norte 12 Sur 0 -- -- 34
2017-11-20 12:00:00 18.3 7 Sur 11 Sudoeste 0 -- -- 37
2017-11-20 11:00:00 16.3 6 Sur 9 Sur 0 -- -- 41
2017-11-20 10:00:00 13.6 3 Noroeste 6 Norte 0 -- -- 44
2017-11-20 09:00:00 11.5 2 Norte 8 Nordeste 0 -- -- 46
2017-11-20 08:00:00 13.4 8 Sudeste 17 Sudeste 0 -- -- 40
2017-11-20 07:00:00 12.7 5 Nordeste 15 Este 0 -- -- 40
2017-11-20 06:00:00 15.3 14 Sudeste 26 Sudeste 0 -- -- 36
2017-11-20 05:00:00 12 2 Norte 10 Sudeste 0 -- -- 42
2017-11-20 04:00:00 12.7 0 Calma 10 Nordeste 0 -- -- 40
2017-11-20 03:00:00 12.9 3 Sur 8 Sudeste 0 -- -- 40
2017-11-20 02:00:00 13.2 4 Sur 10 Sudeste 0 -- -- 39
2017-11-20 01:00:00 15 3 Sudeste 10 Este 0 -- -- 35
2017-11-20 00:00:00 16 6 Este 14 Este 0 -- -- 34
2017-11-19 23:00:00 16.9 13 Este 16 Este 0 -- -- 31
2017-11-19 22:00:00 16.7 9 Este 12 Este 0 -- -- 30
2017-11-19 21:00:00 15.2 2 Sudeste 8 Este 0 -- -- 36
2017-11-19 20:00:00 17.2 10 Este 14 Este 0 -- -- 32
2017-11-19 19:00:00 17 9 Este 14 Nordeste 0 -- -- 33
2017-11-19 18:00:00 18.3 8 Nordeste 12 Nordeste 0 -- -- 33
2017-11-19 17:00:00 19.7 8 Nordeste 16 Nordeste 0 -- -- 29
2017-11-19 16:00:00 20.1 8 Nordeste 15 Nordeste 0 -- -- 29
2017-11-19 15:00:00 19.6 6 Nordeste 13 Nordeste 0 -- -- 32
2017-11-19 14:00:00 18.9 5 Nordeste 9 Norte 0 -- -- 35
2017-11-19 13:00:00 19.3 4 Este 17 Sudeste 0 -- -- 36
2017-11-19 12:00:00 17.6 9 Sudeste 18 Sudeste 0 -- -- 37
2017-11-19 11:00:00 15.9 5 Sudeste 10 Sur 0 -- -- 40
2017-11-19 10:00:00 12.8 2 Sur 9 Sudeste 0 -- -- 48
2017-11-19 09:00:00 9.6 5 Sur 9 Sur 0 -- -- 52
2017-11-19 08:00:00 10.1 3 Norte 10 Este 0 -- -- 49
2017-11-19 07:00:00 11 0 Calma 5 Nordeste 0 -- -- 49
2017-11-19 06:00:00 11.7 0 Calma 3 Sur 0 -- -- 48
2017-11-19 05:00:00 12.1 0 Calma 9 Sudeste 0 -- -- 47
2017-11-19 04:00:00 13.4 3 Noroeste 11 Sudeste 0 -- -- 43
2017-11-19 03:00:00 12.1 0 Calma 6 Este 0 -- -- 47
2017-11-19 02:00:00 13.1 2 Noroeste 9 Sur 0 -- -- 44
2017-11-19 01:00:00 14.3 0 Calma 8 Sudeste 0 -- -- 41
2017-11-19 00:00:00 15.4 4 Sudeste 14 Sudeste 0 -- -- 38
2017-11-18 23:00:00 15.5 3 Este 11 Nordeste 0 -- -- 37
2017-11-18 22:00:00 15.5 3 Nordeste 10 Nordeste 0 -- -- 38
2017-11-18 21:00:00 16.3 5 Este 10 Este 0 -- -- 36
2017-11-18 20:00:00 16.6 8 Este 10 Este 0 -- -- 35
2017-11-18 19:00:00 17.2 7 Este 9 Este 0 -- -- 33
2017-11-18 18:00:00 18.4 5 Nordeste 8 Nordeste 0 -- -- 33
2017-11-18 17:00:00 19.7 6 Nordeste 10 Nordeste 0 -- -- 30
2017-11-18 16:00:00 20 6 Nordeste 12 Nordeste 0 -- -- 29
2017-11-18 15:00:00 20.3 7 Norte 13 Norte 0 -- -- 30
2017-11-18 14:00:00 20.2 5 Norte 12 Noroeste 0 -- -- 35
2017-11-18 13:00:00 19.6 5 Sudoeste 13 Sur 0 -- -- 34
2017-11-18 12:00:00 17.5 4 Nordeste 12 Sudeste 0 -- -- 41
2017-11-18 11:00:00 17.9 6 Sur 9 Sur 0 -- -- 39
2017-11-18 10:00:00 14.4 0 Calma 3 Sur 0 -- -- 47
2017-11-18 09:00:00 11.5 0 Calma 7 Sudeste 0 -- -- 48
2017-11-18 08:00:00 10.8 2 Sur 3 Sur 0 -- -- 49
2017-11-18 07:00:00 13.1 2 Sur 12 Nordeste 0 -- -- 42
2017-11-18 06:00:00 14.5 4 Nordeste 12 Sudeste 0 -- -- 39
2017-11-18 05:00:00 14.8 8 Sudeste 17 Sudeste 0 -- -- 38
2017-11-18 04:00:00 14.6 12 Sudeste 21 Sudeste 0 -- -- 41
2017-11-18 03:00:00 15 15 Sudeste 18 Sudeste 0 -- -- 39
2017-11-18 02:00:00 14.5 3 Sudeste 6 Sudeste 0 -- -- 39
2017-11-18 01:00:00 13.8 3 Sudeste 10 Nordeste 0 -- -- 40
2017-11-18 00:00:00 14.1 6 Nordeste 9 Nordeste 0 -- -- 40
2017-11-17 23:00:00 15.4 4 Nordeste 6 Nordeste 0 -- -- 40
2017-11-17 22:00:00 15.5 4 Nordeste 6 Sudeste 0 -- -- 39
2017-11-17 21:00:00 15.8 5 Nordeste 7 Nordeste 0 -- -- 40
2017-11-17 20:00:00 16.3 4 Este 12 Nordeste 0 -- -- 39
2017-11-17 19:00:00 16.8 6 Nordeste 9 Nordeste 0 -- -- 34
2017-11-17 18:00:00 18.5 4 Nordeste 9 Nordeste 0 -- -- 30
2017-11-17 17:00:00 19.8 4 Norte 11 Norte 0 -- -- 29
2017-11-17 16:00:00 20.2 5 Nordeste 12 Nordeste 0 -- -- 30
2017-11-17 15:00:00 19.8 5 Nordeste 10 Nordeste 0 -- -- 32
2017-11-17 14:00:00 20.7 3 Sur 15 Sudoeste 0 -- -- 30
2017-11-17 13:00:00 18.6 3 Oeste 7 Sur 0 -- -- 38
2017-11-17 12:00:00 17.7 5 Sudoeste 10 Sudoeste 0 -- -- 39
2017-11-17 11:00:00 16.7 6 Sur 10 Sur 0 -- -- 45
2017-11-17 10:00:00 14 2 Sudoeste 3 Noroeste 0 -- -- 48
2017-11-17 09:00:00 11.1 0 Calma 3 Nordeste 0 -- -- 53
2017-11-17 08:00:00 10.8 0 Calma 3 Sudoeste 0 -- -- 54
2017-11-17 07:00:00 10.9 0 Calma 5 Norte 0 -- -- 53
2017-11-17 06:00:00 11.7 0 Calma 2 Norte 0 -- -- 50
2017-11-17 05:00:00 12.4 0 Calma 4 Norte 0 -- -- 47
2017-11-17 04:00:00 13 0 Calma 4 Sudeste 0 -- -- 45
2017-11-17 03:00:00 12.4 3 Sudeste 10 Sudeste 0 -- -- 47
2017-11-17 02:00:00 12.2 4 Sudeste 6 Sudeste 0 -- -- 49
2017-11-17 01:00:00 12.6 2 Sudoeste 4 Sudoeste 0 -- -- 51
2017-11-17 00:00:00 12.4 0 Calma 2 Sudeste 0 -- -- 52
2017-11-16 23:00:00 12.1 0 Calma 5 Sur 0 -- -- 53
2017-11-16 22:00:00 14.5 4 Nordeste 8 Nordeste 0 -- -- 46
2017-11-16 21:00:00 14.2 0 Calma 11 Nordeste 0 -- -- 47
2017-11-16 20:00:00 15.2 8 Este 13 Nordeste 0 -- -- 44
2017-11-16 19:00:00 15.4 9 Este 12 Nordeste 0 -- -- 44
2017-11-16 18:00:00 16.8 5 Nordeste 10 Este 0 -- -- 41
2017-11-16 17:00:00 17.8 6 Nordeste 12 Este 0 -- -- 39
2017-11-16 16:00:00 18.1 6 Nordeste 15 Este 0 -- -- 38
2017-11-16 15:00:00 18 7 Nordeste 15 Este 0 -- -- 38
2017-11-16 14:00:00 16.9 10 Nordeste 24 Nordeste 0 -- -- 44
2017-11-16 13:00:00 16.3 4 Nordeste 13 Norte 0 -- -- 47
2017-11-16 12:00:00 15.3 3 Norte 6 Norte 0 -- -- 51
2017-11-16 11:00:00 13.5 0 Calma 6 Oeste 0 -- -- 59
2017-11-16 10:00:00 11.4 2 Noroeste 4 Norte 0 -- -- 65
2017-11-16 09:00:00 10.5 0 Calma 3 Sudoeste 0 -- -- 65
2017-11-16 08:00:00 9.9 0 Calma 5 Sudeste 0 -- -- 67
2017-11-16 07:00:00 10.3 5 Sudeste 6 Sudeste 0 -- -- 65
2017-11-16 06:00:00 10.7 4 Sudeste 7 Sudeste 0 -- -- 62
2017-11-16 05:00:00 10.4 3 Sudeste 5 Sudeste 0 -- -- 63
2017-11-16 04:00:00 9.8 0 Calma 4 Sur 0 -- -- 66
2017-11-16 03:00:00 10.7 2 Sur 3 Sudeste 0 -- -- 61
2017-11-16 02:00:00 11.5 0 Calma 2 Sudeste 0 -- -- 59
2017-11-16 01:00:00 12.1 2 Sudeste 7 Este 0 -- -- 56
2017-11-16 00:00:00 12.4 4 Nordeste 6 Este 0 -- -- 54
2017-11-15 23:00:00 11.7 0 Calma 3 Sudeste 0 -- -- 59
2017-11-15 22:00:00 12.3 3 Sur 6 Sudeste 0 -- -- 57
2017-11-15 21:00:00 12.8 4 Sudeste 10 Nordeste 0 -- -- 55
2017-11-15 20:00:00 13.8 7 Nordeste 12 Nordeste 0 -- -- 52
2017-11-15 19:00:00 14.1 7 Nordeste 12 Nordeste 0 -- -- 51
2017-11-15 18:00:00 15.8 7 Nordeste 14 Nordeste 0 -- -- 47
2017-11-15 17:00:00 18.1 6 Noroeste 15 Noroeste 0 -- -- 42
2017-11-15 16:00:00 18.3 7 Noroeste 16 Noroeste 0 -- -- 43
2017-11-15 15:00:00 18.9 4 Sudoeste 13 Sur 0 -- -- 42
2017-11-15 14:00:00 18.3 6 Sur 19 Sur 0 -- -- 42
2017-11-15 13:00:00 17.3 10 Sur 19 Sudeste 0 -- -- 47
2017-11-15 12:00:00 15.3 13 Sudeste 26 Sudeste 0 -- -- 51
2017-11-15 11:00:00 13.3 17 Sudeste 26 Sudeste 0 -- -- 53
2017-11-15 10:00:00 12 15 Sudeste 23 Sudeste 0 -- -- 50
2017-11-15 09:00:00 10.5 14 Sudeste 21 Sudeste 0 -- -- 46
2017-11-15 08:00:00 9.8 9 Sudeste 21 Sudeste 0 -- -- 54
2017-11-15 07:00:00 10 13 Sudeste 22 Sudeste 0 -- -- 42
2017-11-15 06:00:00 10.3 9 Sudeste 17 Sudeste 0 -- -- 32
2017-11-15 05:00:00 9.7 9 Sudeste 20 Sudeste 0 -- -- 34
2017-11-15 04:00:00 9.1 11 Sudeste 15 Sudeste 0 -- -- 44
2017-11-15 03:00:00 11.9 10 Este 17 Este 0 -- -- 28
2017-11-15 02:00:00 9.2 4 Sudeste 12 Este 0 -- -- 42
2017-11-15 01:00:00 11.1 9 Este 13 Este 0 -- -- 40
2017-11-15 00:00:00 11.9 10 Este 12 Sudeste 0 -- -- 38
2017-11-14 23:00:00 12.2 8 Sudeste 12 Sudeste 0 -- -- 37
2017-11-14 22:00:00 12.4 9 Este 15 Este 0 -- -- 36
2017-11-14 21:00:00 11.3 0 Calma 6 Oeste 0 -- -- 39
2017-11-14 20:00:00 12.1 5 Este 9 Nordeste 0 -- -- 37
2017-11-14 19:00:00 12.3 6 Nordeste 8 Nordeste 0 -- -- 38
2017-11-14 18:00:00 13.6 3 Norte 10 Norte 0 -- -- 34
2017-11-14 17:00:00 14.4 5 Norte 11 Norte 0 -- -- 33
2017-11-14 16:00:00 14.6 5 Norte 16 Nordeste 0 -- -- 31
2017-11-14 15:00:00 13.9 6 Nordeste 17 Nordeste 0 -- -- 33
2017-11-14 14:00:00 13.1 8 Nordeste 17 Nordeste 0 -- -- 35
2017-11-14 13:00:00 12 8 Nordeste 18 Nordeste 0 -- -- 37
2017-11-14 12:00:00 12.1 5 Sudoeste 10 Sur 0 -- -- 38
2017-11-14 11:00:00 10.5 2 Oeste 9 Sudeste 0 -- -- 44
2017-11-14 10:00:00 9.4 5 Sudeste 16 Sudeste 0 -- -- 45
2017-11-14 09:00:00 6.4 2 Norte 10 Sudeste 0 -- -- 54
2017-11-14 08:00:00 5.9 8 Sudeste 20 Sudeste 0 -- -- 55
2017-11-14 07:00:00 5.1 5 Sudeste 11 Sudeste 0 -- -- 59
2017-11-14 06:00:00 6.7 6 Sudeste 14 Sudeste 0 -- -- 51
2017-11-14 05:00:00 6.6 5 Nordeste 23 Sudeste 0 -- -- 53
2017-11-14 04:00:00 7.9 14 Sudeste 24 Sudeste 0 -- -- 52
2017-11-14 03:00:00 8.3 6 Sudeste 15 Sudeste 0 -- -- 51
2017-11-14 02:00:00 7.8 6 Sudeste 9 Sudeste 0 -- -- 55
2017-11-14 01:00:00 9.3 4 Sudeste 27 Sudeste 0 -- -- 48
2017-11-14 00:00:00 10.8 10 Sudeste 30 Este 0 -- -- 43
2017-11-13 23:00:00 11.9 18 Sudeste 35 Sudeste 0 -- -- 40
2017-11-13 22:00:00 12.7 16 Sudeste 35 Sudeste 0 -- -- 39
2017-11-13 21:00:00 13.5 16 Sudeste 31 Sudeste 0 -- -- 37
2017-11-13 20:00:00 14 14 Este 30 Sudeste 0 -- -- 36
2017-11-13 19:00:00 14.8 6 Nordeste 8 Nordeste 0 -- -- 50
2017-11-13 18:00:00 16.5 5 Norte 11 Norte 0 -- -- 45
2017-11-13 17:00:00 17 8 Nordeste 16 Nordeste 0 -- -- 44
2017-11-13 16:00:00 17.2 8 Nordeste 17 Norte 0 -- -- 44
2017-11-13 15:00:00 17.3 5 Norte 14 Nordeste 0 -- -- 48
2017-11-13 14:00:00 16.1 6 Nordeste 13 Nordeste 0 -- -- 52
2017-11-13 13:00:00 15.3 8 Norte 14 Norte 0 -- -- 58
2017-11-13 12:00:00 13.5 5 Noroeste 10 Oeste 0 -- -- 66
2017-11-13 11:00:00 11.5 5 Norte 12 Noroeste 0 -- -- 72
2017-11-13 10:00:00 10.4 2 Norte 4 Norte 0 -- -- 77
2017-11-13 09:00:00 8.6 4 Sur 7 Sudeste 0 -- -- 83
2017-11-13 08:00:00 7.7 2 Sur 6 Sur 0 -- -- 84
2017-11-13 07:00:00 8.3 3 Sur 4 Sur 0 -- -- 81
2017-11-13 06:00:00 8.7 0 Calma 6 Sur 0 -- -- 78
2017-11-13 05:00:00 8.9 3 Sur 5 Sudeste 0 -- -- 75
2017-11-13 04:00:00 9.5 0 Calma 4 Oeste 0 -- -- 70
2017-11-13 03:00:00 10.4 0 Calma 6 Sudeste 0 -- -- 65
2017-11-13 02:00:00 11.5 0 Calma 6 Norte 0 -- -- 60
2017-11-13 01:00:00 11.9 2 Noroeste 9 Noroeste 0 -- -- 56
2017-11-13 00:00:00 12.4 0 Calma 6 Nordeste 0 -- -- 56
2017-11-12 23:00:00 12.8 2 Sur 8 Sur 0 -- -- 59
2017-11-12 22:00:00 13.8 6 Sur 9 Sudeste 0 -- -- 55
2017-11-12 21:00:00 14.9 0 Calma 5 Nordeste 0 -- -- 52
2017-11-12 20:00:00 15.2 4 Norte 10 Norte 0 -- -- 50
2017-11-12 19:00:00 15.9 8 Norte 10 Norte 0 -- -- 47
2017-11-12 18:00:00 17.5 7 Norte 18 Norte 0 -- -- 42
2017-11-12 17:00:00 19 11 Norte 20 Noroeste 0 -- -- 35
2017-11-12 16:00:00 19 12 Norte 21 Noroeste 0 -- -- 34
2017-11-12 15:00:00 18.7 12 Norte 24 Noroeste 0 -- -- 34
2017-11-12 14:00:00 18.3 13 Noroeste 22 Norte 0 -- -- 37
2017-11-12 13:00:00 16.4 10 Noroeste 16 Noroeste 0 -- -- 47
2017-11-12 12:00:00 14.6 6 Noroeste 12 Norte 0 -- -- 56
2017-11-12 11:00:00 13.5 7 Norte 11 Norte 0 -- -- 60
2017-11-12 10:00:00 13.7 2 Noroeste 6 Sudoeste 0 -- -- 56
2017-11-12 09:00:00 12.1 3 Sur 10 Sur 0 -- -- 60
2017-11-12 08:00:00 11 6 Sur 10 Sudeste 0 -- -- 63
2017-11-12 07:00:00 11 5 Sudeste 7 Sudeste 0 -- -- 63
2017-11-12 06:00:00 10.9 0 Calma 4 Sudeste 0 -- -- 60
2017-11-12 05:00:00 11.6 0 Calma 3 Noroeste 0 -- -- 57
2017-11-12 04:00:00 12 0 Calma 4 Sudeste 0 -- -- 58
2017-11-12 03:00:00 12.2 4 Sudeste 5 Sudeste 0 -- -- 59
2017-11-12 02:00:00 11.9 2 Sudeste 6 Sudeste 0 -- -- 62
2017-11-12 01:00:00 12.2 0 Calma 6 Oeste 0 -- -- 60
2017-11-12 00:00:00 12.2 0 Calma 4 Oeste 0 -- -- 60
2017-11-11 23:00:00 12.4 0 Calma 4 Sudeste 0 -- -- 58
2017-11-11 22:00:00 13.1 0 Calma 4 Sudoeste 0 -- -- 56
2017-11-11 21:00:00 13.9 2 Nordeste 5 Nordeste 0 -- -- 53
2017-11-11 20:00:00 14.5 4 Nordeste 10 Nordeste 0 -- -- 52
2017-11-11 19:00:00 15.1 5 Nordeste 9 Norte 0 -- -- 50
2017-11-11 18:00:00 17.2 4 Norte 12 Norte 0 -- -- 46
2017-11-11 17:00:00 18.4 6 Norte 13 Norte 0 -- -- 43
2017-11-11 16:00:00 18.8 6 Norte 13 Noroeste 0 -- -- 41
2017-11-11 15:00:00 19.2 3 Norte 9 Oeste 0 -- -- 41
2017-11-11 14:00:00 19.1 4 Sur 18 Sudoeste 0 -- -- 42
2017-11-11 13:00:00 17.5 3 Oeste 13 Oeste 0 -- -- 45
2017-11-11 12:00:00 17.7 8 Sur 15 Sudeste 0 -- -- 46
2017-11-11 11:00:00 16.7 10 Sur 13 Sur 0 -- -- 49
2017-11-11 10:00:00 14.5 6 Sur 9 Sudeste 0 -- -- 54
2017-11-11 09:00:00 11.7 0 Calma 5 Sudeste 0 -- -- 61
2017-11-11 08:00:00 9.5 8 Sudeste 10 Sudeste 0 -- -- 67
2017-11-11 07:00:00 9.6 0 Calma 7 Norte 0 -- -- 61
2017-11-11 06:00:00 10.2 6 Nordeste 10 Nordeste 0 -- -- 59
2017-11-11 05:00:00 10.4 3 Nordeste 6 Norte 0 -- -- 59
2017-11-11 04:00:00 10.4 0 Calma 6 Este 0 -- -- 58
2017-11-11 03:00:00 10.4 2 Sur 9 Nordeste 0 -- -- 59
2017-11-11 02:00:00 11.9 7 Nordeste 9 Nordeste 0 -- -- 55
2017-11-11 01:00:00 11.5 0 Calma 6 Este 0 -- -- 54
2017-11-11 00:00:00 12.9 3 Norte 8 Nordeste 0 -- -- 50
2017-11-10 23:00:00 12.8 0 Calma 6 Nordeste 0 -- -- 49
2017-11-10 22:00:00 12.5 0 Calma 5 Sudeste 0 -- -- 49
2017-11-10 21:00:00 12.5 4 Sur 5 Norte 0 -- -- 51
2017-11-10 20:00:00 13.7 4 Norte 8 Norte 0 -- -- 46
2017-11-10 19:00:00 13.8 2 Norte 10 Norte 0 -- -- 47
2017-11-10 18:00:00 15.6 8 Norte 18 Norte 0 -- -- 43
2017-11-10 17:00:00 16.8 8 Norte 21 Norte 0 -- -- 39
2017-11-10 16:00:00 16.4 9 Norte 22 Norte 0 -- -- 39
2017-11-10 15:00:00 15.7 7 Norte 21 Norte 0 -- -- 42
2017-11-10 14:00:00 14.5 8 Norte 19 Norte 0 -- -- 46
2017-11-10 13:00:00 13.2 9 Norte 21 Norte 0 -- -- 47
2017-11-10 12:00:00 12.1 7 Norte 14 Norte 0 -- -- 47
2017-11-10 11:00:00 10.7 4 Norte 9 Norte 0 -- -- 49
2017-11-10 10:00:00 9.1 5 Nordeste 10 Nordeste 0 -- -- 52
2017-11-10 09:00:00 7 5 Nordeste 11 Nordeste 0 -- -- 58
2017-11-10 08:00:00 7 2 Noroeste 15 Nordeste 0 -- -- 58
2017-11-10 07:00:00 8.8 6 Nordeste 15 Este 0 -- -- 51
2017-11-10 06:00:00 6.9 4 Nordeste 8 Nordeste 0 -- -- 59
2017-11-10 05:00:00 7.5 0 Calma 15 Este 0 -- -- 57
2017-11-10 04:00:00 8.6 3 Nordeste 15 Nordeste 0 -- -- 50
2017-11-10 03:00:00 8.7 2 Este 17 Este 0 -- -- 50
2017-11-10 02:00:00 9.6 7 Este 25 Este 0 -- -- 47
2017-11-10 01:00:00 9.5 13 Este 23 Este 0 -- -- 48
2017-11-10 00:00:00 9.8 8 Este 22 Este 0 -- -- 48
2017-11-09 23:00:00 10.1 11 Este 34 Sudeste 0 -- -- 48
2017-11-09 22:00:00 10.1 13 Este 23 Sudeste 0 -- -- 49
2017-11-09 21:00:00 11 7 Este 21 Este 0 -- -- 46
2017-11-09 20:00:00 11.8 12 Este 23 Este 0 -- -- 41
2017-11-09 19:00:00 11.6 6 Nordeste 11 Nordeste 0 -- -- 40
2017-11-09 18:00:00 13.2 6 Norte 24 Nordeste 0 -- -- 36
2017-11-09 17:00:00 14 11 Nordeste 28 Norte 0 -- -- 35
2017-11-09 16:00:00 14.2 10 Nordeste 27 Nordeste 0 -- -- 34
2017-11-09 15:00:00 13.4 14 Nordeste 30 Nordeste 0 -- -- 37
2017-11-09 14:00:00 12.9 14 Nordeste 36 Este 0 -- -- 37
2017-11-09 13:00:00 12.1 13 Nordeste 44 Nordeste 0 -- -- 40
2017-11-09 12:00:00 11 14 Nordeste 39 Nordeste 0 -- -- 43
2017-11-09 11:00:00 9.8 10 Nordeste 26 Nordeste 0 -- -- 48
2017-11-09 10:00:00 8.9 4 Este 22 Este 0 -- -- 50
2017-11-09 09:00:00 7.8 5 Este 21 Nordeste 0 -- -- 53
2017-11-09 08:00:00 7 7 Este 28 Este 0 -- -- 56
2017-11-09 07:00:00 7.7 13 Este 26 Este 0 -- -- 53
2017-11-09 06:00:00 8.1 11 Este 36 Nordeste 0 -- -- 53
2017-11-09 05:00:00 8.9 5 Este 33 Sudeste 0 -- -- 51
2017-11-09 04:00:00 9.4 13 Este 24 Este 0 -- -- 53
2017-11-09 03:00:00 9.9 13 Este 28 Este 0 -- -- 52
2017-11-09 02:00:00 10.7 6 Este 25 Este 0 -- -- 48
2017-11-09 01:00:00 11.5 10 Este 24 Este 0 -- -- 46
2017-11-09 00:00:00 12.2 8 Este 28 Nordeste 0 -- -- 44
2017-11-08 23:00:00 12.4 8 Este 33 Este 0 -- -- 45
2017-11-08 22:00:00 12.5 9 Este 24 Este 0 -- -- 55
2017-11-08 21:00:00 12.2 6 Norte 17 Norte 0 -- -- 59
2017-11-08 20:00:00 13.1 9 Norte 20 Norte 0 -- -- 56
2017-11-08 19:00:00 14.1 6 Norte 13 Norte 0 -- -- 55
2017-11-08 18:00:00 16.1 4 Norte 13 Nordeste 0 -- -- 48
2017-11-08 17:00:00 16.6 6 Nordeste 16 Nordeste 0 -- -- 45
2017-11-08 16:00:00 17 9 Nordeste 21 Nordeste 0 -- -- 46
2017-11-08 15:00:00 16.1 8 Nordeste 18 Nordeste 0 -- -- 51
2017-11-08 14:00:00 15.2 7 Nordeste 21 Nordeste 0 -- -- 56
2017-11-08 13:00:00 13.9 8 Nordeste 17 Nordeste 0 -- -- 62
2017-11-08 12:00:00 12.8 7 Norte 12 Nordeste 0 -- -- 66
2017-11-08 11:00:00 12.1 3 Noroeste 8 Oeste 0 -- -- 70
2017-11-08 10:00:00 11.6 3 Sudoeste 9 Sur 0 -- -- 68
2017-11-08 09:00:00 9.6 2 Este 5 Sudeste 0 -- -- 77
2017-11-08 08:00:00 8.3 4 Sudeste 5 Sudeste 0 -- -- 79
2017-11-08 07:00:00 8.8 3 Norte 5 Norte 0 -- -- 77
2017-11-08 06:00:00 9 0 Calma 4 Noroeste 0 -- -- 73
2017-11-08 05:00:00 9.8 2 Oeste 5 Sudoeste 0 -- -- 68
2017-11-08 04:00:00 10.4 0 Calma 5 Noroeste 0 -- -- 63
2017-11-08 03:00:00 10.7 2 Noroeste 7 Sudoeste 0 -- -- 62
2017-11-08 02:00:00 11 5 Sur 9 Sur 0 -- -- 63
2017-11-08 01:00:00 11.4 3 Sur 5 Sur 0 -- -- 61
2017-11-08 00:00:00 11.9 2 Sur 5 Sur 0 -- -- 59
2017-11-07 23:00:00 12.5 3 Sudeste 7 Sudeste 0 -- -- 58
2017-11-07 22:00:00 12.8 4 Sur 6 Sudeste 0 -- -- 58
2017-11-07 21:00:00 13.3 3 Sur 4 Sudoeste 0 -- -- 56
2017-11-07 20:00:00 14 0 Calma 4 Noroeste 0 -- -- 52
2017-11-07 19:00:00 14.8 3 Nordeste 7 Noroeste 0 -- -- 49
2017-11-07 18:00:00 16.8 5 Noroeste 14 Noroeste 0 -- -- 45
2017-11-07 17:00:00 17.5 8 Norte 17 Noroeste 0 -- -- 41
2017-11-07 16:00:00 17.6 9 Noroeste 19 Noroeste 0 -- -- 41
2017-11-07 15:00:00 16.6 8 Norte 18 Norte 0 -- -- 42
2017-11-07 14:00:00 15.8 6 Noroeste 15 Norte 0 -- -- 48
2017-11-07 13:00:00 14.1 7 Nordeste 14 Nordeste 0 -- -- 49
2017-11-07 12:00:00 13.7 5 Norte 10 Norte 0 -- -- 50
2017-11-07 11:00:00 13.6 5 Sudoeste 13 Sur 0 -- -- 50
2017-11-07 10:00:00 12 7 Sur 11 Sudeste 0 -- -- 58
2017-11-07 09:00:00 8.4 2 Sudoeste 4 Sur 0 -- -- 67
2017-11-07 08:00:00 7.5 2 Norte 5 Nordeste 0 -- -- 69
2017-11-07 07:00:00 8.4 2 Nordeste 18 Sudeste 0 -- -- 64
2017-11-07 06:00:00 9.2 14 Sudeste 19 Sudeste 0 -- -- 61
2017-11-07 05:00:00 9.9 8 Sudeste 18 Sudeste 0 -- -- 59
2017-11-07 04:00:00 10.7 6 Este 13 Sudeste 0 -- -- 55
2017-11-07 03:00:00 11.3 6 Sudeste 17 Este 0 -- -- 53
2017-11-07 02:00:00 11.7 8 Este 20 Este 0 -- -- 51
2017-11-07 01:00:00 12.2 10 Este 18 Sudeste 0 -- -- 51
2017-11-07 00:00:00 12.4 10 Sudeste 15 Sudeste 0 -- -- 52
2017-11-06 23:00:00 12.5 6 Este 14 Nordeste 0 -- -- 53
2017-11-06 22:00:00 11.7 4 Nordeste 9 Nordeste 0 -- -- 58
2017-11-06 21:00:00 12.8 6 Nordeste 11 Nordeste 0 -- -- 54
2017-11-06 20:00:00 13.4 6 Norte 8 Norte 0 -- -- 48
2017-11-06 19:00:00 13.6 4 Nordeste 8 Nordeste 0 -- -- 49
2017-11-06 18:00:00 15.3 4 Nordeste 13 Nordeste 0 -- -- 45
2017-11-06 17:00:00 16.1 5 Nordeste 18 Nordeste 0 -- -- 43
2017-11-06 16:00:00 16.3 8 Nordeste 18 Sudeste 0 -- -- 42
2017-11-06 15:00:00 16.1 8 Este 26 Este 0 -- -- 42
2017-11-06 14:00:00 15.5 13 Nordeste 34 Nordeste 0 -- -- 42
2017-11-06 13:00:00 15.1 7 Este 23 Este 0 -- -- 49
2017-11-06 12:00:00 14.1 13 Este 23 Este 0 -- -- 52
2017-11-06 11:00:00 13.2 9 Sudeste 19 Este 0 -- -- 57
2017-11-06 10:00:00 12 6 Este 13 Este 0 -- -- 57
2017-11-06 09:00:00 10.8 3 Este 15 Este 0 -- -- 59
2017-11-06 08:00:00 10.5 9 Sudeste 22 Este 0 -- -- 59
2017-11-06 07:00:00 10.7 8 Sudeste 19 Este 0 -- -- 58
2017-11-06 06:00:00 10.7 7 Este 15 Este 0 -- -- 59
2017-11-06 05:00:00 11.3 9 Sudeste 21 Este 0 -- -- 56
2017-11-06 04:00:00 11.8 10 Sudeste 26 Sudeste 0 -- -- 55
2017-11-06 03:00:00 12.4 19 Sudeste 26 Sudeste 0 -- -- 52
2017-11-06 02:00:00 12.6 17 Sudeste 28 Este 0 -- -- 52
2017-11-06 01:00:00 12.9 13 Sudeste 21 Sudeste 0 -- -- 54
2017-11-06 00:00:00 13.3 12 Sudeste 20 Sudeste 0 -- -- 61
2017-11-05 23:00:00 13.1 12 Sudeste 21 Sudeste 0 -- -- 70
2017-11-05 22:00:00 12.6 4 Nordeste 14 Nordeste 0 -- -- 66
2017-11-05 21:00:00 13.3 6 Norte 11 Norte 0 -- -- 72
2017-11-05 20:00:00 14.3 6 Norte 9 Norte 0 -- -- 76
2017-11-05 19:00:00 14.5 4 Nordeste 10 Norte 0 -- -- 78
2017-11-05 18:00:00 16.1 6 Norte 13 Norte 0 -- -- 71
2017-11-05 17:00:00 16.9 8 Noroeste 15 Norte 0 -- -- 67
2017-11-05 16:00:00 17.2 9 Noroeste 15 Noroeste 0 -- -- 67
2017-11-05 15:00:00 16.3 6 Noroeste 14 Noroeste 0 -- -- 72
2017-11-05 14:00:00 15.5 4 Norte 14 Oeste 0 -- -- 73
2017-11-05 13:00:00 15.2 7 Noroeste 14 Oeste 0 -- -- 75
2017-11-05 12:00:00 14.3 5 Noroeste 11 Oeste 0 -- -- 77
2017-11-05 11:00:00 13.5 0 Calma 6 Sudoeste 0 -- -- 82
2017-11-05 10:00:00 11.4 3 Sur 5 Sur 0 -- -- 96
2017-11-05 09:00:00 10 3 Sur 7 Sudeste 0 -- -- 97
2017-11-05 08:00:00 9.9 0 Calma 5 Sur 0 -- -- 97
2017-11-05 07:00:00 9.8 3 Sur 6 Sudoeste 0 -- -- 96
2017-11-05 06:00:00 10.2 2 Oeste 4 Oeste 0 -- -- 95
2017-11-05 05:00:00 10.6 0 Calma 7 Sudeste 0 -- -- 96
2017-11-05 04:00:00 11 2 Oeste 8 Noroeste 0 -- -- 95
2017-11-05 03:00:00 11.2 2 Sudeste 5 Oeste 0 -- -- 95
2017-11-05 02:00:00 11.8 4 Oeste 9 Oeste 0 -- -- 93
2017-11-05 01:00:00 12.1 2 Oeste 5 Noroeste 0 -- -- 92
2017-11-05 00:00:00 12.6 0 Calma 12 Noroeste 0 -- -- 91
2017-11-04 23:00:00 12.9 3 Noroeste 12 Noroeste 0 -- -- 91
2017-11-04 22:00:00 13 5 Noroeste 10 Noroeste 0 -- -- 91
2017-11-04 21:00:00 13.4 6 Noroeste 18 Oeste 0 -- -- 90
2017-11-04 20:00:00 13.6 7 Oeste 15 Noroeste 0 -- -- 90
2017-11-04 19:00:00 13.7 9 Oeste 34 Oeste 0 -- -- 87
2017-11-04 18:00:00 14.3 16 Noroeste 28 Noroeste 0 -- -- 85
2017-11-04 17:00:00 14.3 19 Oeste 39 Oeste 0.4 -- -- 86
2017-11-04 16:00:00 14.2 11 Oeste 28 Oeste 5 -- -- 93
2017-11-04 15:00:00 14.2 19 Sudoeste 33 Oeste 0.6 -- -- 88
2017-11-04 14:00:00 16.5 22 Oeste 35 Sudoeste 0 -- -- 67
2017-11-04 13:00:00 15.2 16 Oeste 37 Sudoeste 0 -- -- 79
2017-11-04 12:00:00 15.7 23 Sudoeste 32 Sudoeste 0 -- -- 77
2017-11-04 11:00:00 14.2 22 Sudoeste 30 Sudoeste 0 -- -- 87
2017-11-04 10:00:00 14 23 Sudoeste 35 Sudoeste 0.2 -- -- 87
2017-11-04 09:00:00 12.8 18 Sur 28 Sur 0.6 -- -- 93
2017-11-04 08:00:00 12.7 16 Sur 33 Sur 0 -- -- 89
2017-11-04 07:00:00 13.1 18 Sur 30 Sur 0 -- -- 87
2017-11-04 06:00:00 12.9 14 Sur 26 Sur 0 -- -- 90
2017-11-04 05:00:00 12.8 16 Sur 26 Sur 0 -- -- 89
2017-11-04 04:00:00 13 18 Sur 27 Sur 0 -- -- 89
2017-11-04 03:00:00 13.1 17 Sur 31 Sur 0.8 -- -- 90
2017-11-04 02:00:00 13.8 18 Sur 27 Sur 0 -- -- 88
2017-11-04 01:00:00 13.8 18 Sur 33 Sudeste 0 -- -- 88
2017-11-04 00:00:00 13.7 20 Sur 29 Sudeste 0 -- -- 89
2017-11-03 23:00:00 14.1 19 Sur 31 Sur 0 -- -- 89
2017-11-03 22:00:00 14.4 19 Sur 42 Sudoeste 0.8 -- -- 89
2017-11-03 21:00:00 15.1 21 Sur 30 Sur 0.2 -- -- 86
2017-11-03 20:00:00 15.6 19 Sur 32 Sur 0 -- -- 81
2017-11-03 19:00:00 16 21 Sur 31 Sur 0 -- -- 78
2017-11-03 18:00:00 17.6 19 Sur 34 Sur 0 -- -- 71
2017-11-03 17:00:00 19.8 22 Sur 30 Sudoeste 0 -- -- 59
2017-11-03 16:00:00 20.8 21 Sur 27 Sur 0 -- -- 56
2017-11-03 15:00:00 21.3 15 Sudoeste 25 Sudoeste 0 -- -- 50
2017-11-03 14:00:00 20.9 16 Sur 30 Sudeste 0 -- -- 60
2017-11-03 13:00:00 18.3 7 Sur 19 Sudoeste 0 -- -- 72
2017-11-03 12:00:00 18.1 12 Sur 19 Sur 0 -- -- 75
2017-11-03 11:00:00 15.9 11 Sur 19 Sudeste 0 -- -- 87
2017-11-03 10:00:00 14.3 12 Sudeste 18 Sudeste 0 -- -- 91
2017-11-03 09:00:00 13.6 11 Sudeste 21 Sudeste 0 -- -- 92
2017-11-03 08:00:00 13.2 9 Sudeste 18 Sudeste 0 -- -- 92
2017-11-03 07:00:00 14.2 3 Sudeste 6 Este 1.4 -- -- 94
2017-11-03 06:00:00 14.2 4 Noroeste 16 Sur 6.2 -- -- 93
2017-11-03 05:00:00 14.6 10 Sur 14 Sur 2.6 -- -- 89
2017-11-03 04:00:00 15.2 10 Sur 16 Sur 0 -- -- 77
2017-11-03 03:00:00 15.6 9 Sur 18 Sur 0 -- -- 76
2017-11-03 02:00:00 15.8 9 Sur 22 Sur 0 -- -- 73
2017-11-03 01:00:00 16.3 17 Sur 29 Sudoeste 0 -- -- 71
2017-11-03 00:00:00 16.6 15 Sur 28 Sur 0 -- -- 70
2017-11-02 23:00:00 16.9 13 Sudeste 23 Sudeste 0 -- -- 69
2017-11-02 22:00:00 16.9 13 Sur 27 Sudeste 0 -- -- 68
2017-11-02 21:00:00 17.1 13 Sur 26 Sudeste 0 -- -- 65
2017-11-02 20:00:00 17.2 13 Sur 19 Sur 0 -- -- 62
2017-11-02 19:00:00 17.6 9 Sur 20 Sur 0 -- -- 61
2017-11-02 18:00:00 18.3 15 Sur 24 Sur 0 -- -- 60
2017-11-02 17:00:00 19 19 Sur 29 Sur 0 -- -- 57
2017-11-02 16:00:00 19.6 17 Sur 26 Sur 0 -- -- 56
2017-11-02 15:00:00 20 20 Sur 34 Sur 0 -- -- 55
2017-11-02 14:00:00 19.4 24 Sur 38 Sudoeste 0 -- -- 56
2017-11-02 13:00:00 19.6 28 Sudoeste 39 Sur 0 -- -- 57
2017-11-02 12:00:00 19.3 31 Sur 43 Sur 0 -- -- 59
2017-11-02 11:00:00 18.1 19 Sur 32 Sudeste 0 -- -- 65
2017-11-02 10:00:00 16.1 15 Sur 31 Sudeste 0 -- -- 72
2017-11-02 09:00:00 14.4 19 Sudeste 32 Sudeste 0 -- -- 81
2017-11-02 08:00:00 14.2 17 Sudeste 28 Sudeste 0 -- -- 81
2017-11-02 07:00:00 14.4 14 Sudeste 23 Sudeste 0 -- -- 80
2017-11-02 06:00:00 14.5 13 Sudeste 23 Sudeste 0 -- -- 79
2017-11-02 05:00:00 14.8 12 Sudeste 24 Sudeste 0 -- -- 79
2017-11-02 04:00:00 15.1 14 Sur 24 Sur 0 -- -- 77
2017-11-02 03:00:00 15.7 13 Sudeste 24 Sudeste 0 -- -- 74
2017-11-02 02:00:00 15.8 14 Sudeste 24 Sudeste 0 -- -- 71
2017-11-02 01:00:00 16.4 13 Sudeste 27 Sudeste 0 -- -- 68
2017-11-02 00:00:00 16.7 15 Sudeste 28 Sudeste 0 -- -- 65
2017-11-01 23:00:00 17.2 14 Sudeste 24 Sudeste 0 -- -- 61
2017-11-01 22:00:00 17.7 15 Sudeste 24 Sudeste 0 -- -- 56
2017-11-01 21:00:00 18.1 12 Sudeste 18 Sudeste 0 -- -- 54
2017-11-01 20:00:00 18.8 12 Sudeste 20 Sudeste 0 -- -- 53
2017-11-01 19:00:00 19.6 10 Sudeste 19 Sur 0 -- -- 50
2017-11-01 18:00:00 21.3 15 Sur 27 Sur 0 -- -- 45
2017-11-01 17:00:00 22.4 15 Sur 30 Sur 0 -- -- 40
2017-11-01 16:00:00 24.4 19 Sur 30 Sur 0 -- -- 36
2017-11-01 15:00:00 25.1 16 Sur 30 Sur 0 -- -- 32
2017-11-01 14:00:00 24.1 19 Sudoeste 27 Sur 0 -- -- 35
2017-11-01 13:00:00 22.6 14 Sur 31 Sudeste 0 -- -- 44
2017-11-01 12:00:00 20 21 Sudeste 35 Sur 0 -- -- 53
2017-11-01 11:00:00 18.4 23 Sudeste 35 Sur 0 -- -- 59
2017-11-01 10:00:00 16.9 19 Sudeste 31 Sudeste 0 -- -- 65
2017-11-01 09:00:00 14.6 18 Sudeste 31 Sudeste 0 -- -- 74
2017-11-01 08:00:00 13.7 18 Sudeste 31 Sudeste 0 -- -- 78
2017-11-01 07:00:00 14.1 19 Sudeste 30 Sudeste 0 -- -- 76
2017-11-01 06:00:00 14.7 21 Sudeste 37 Sudeste 0 -- -- 73
2017-11-01 05:00:00 15.1 21 Sudeste 35 Sudeste 0 -- -- 72
2017-11-01 04:00:00 15.4 19 Sudeste 31 Sur 0 -- -- 67
2017-11-01 03:00:00 15.5 17 Sudeste 27 Sudeste 0 -- -- 65
2017-11-01 02:00:00 15.8 15 Sudeste 27 Sudeste 0 -- -- 64
2017-11-01 01:00:00 16.1 14 Sudeste 24 Sudeste 0 -- -- 63
2017-11-01 00:00:00 17 12 Sudeste 18 Sudeste 0 -- -- 61
2017-10-31 23:00:00 17.8 10 Sudeste 19 Sudeste 0 -- -- 58
2017-10-31 22:00:00 18.3 11 Sudeste 18 Sudeste 0 -- -- 54
2017-10-31 21:00:00 19 12 Sudeste 18 Sudeste 0 -- -- 49
2017-10-31 20:00:00 19.5 9 Sudeste 17 Sudeste 0 -- -- 45
2017-10-31 19:00:00 20.5 8 Sur 13 Sudeste 0 -- -- 43
2017-10-31 18:00:00 23.2 9 Sur 16 Sur 0 -- -- 36
2017-10-31 17:00:00 24.4 10 Sur 18 Sudeste 0 -- -- 34
2017-10-31 16:00:00 24.1 6 Sudeste 21 Sudeste 0 -- -- 32
2017-10-31 15:00:00 24.1 7 Sudeste 20 Sudeste 0 -- -- 30
2017-10-31 14:00:00 23.5 8 Sudeste 21 Sudoeste 0 -- -- 33
2017-10-31 13:00:00 22.9 7 Sur 20 Sur 0 -- -- 37
2017-10-31 12:00:00 21.3 11 Sur 25 Sudeste 0 -- -- 40
2017-10-31 11:00:00 19.7 11 Sudeste 20 Sudeste 0 -- -- 43
2017-10-31 10:00:00 17.9 12 Sudeste 19 Sudeste 0 -- -- 47
2017-10-31 09:00:00 16.8 7 Sudeste 16 Este 0 -- -- 47
2017-10-31 08:00:00 15.4 12 Sudeste 24 Sudeste 0 -- -- 46
2017-10-31 07:00:00 15.5 16 Sudeste 25 Sudeste 0 -- -- 47
2017-10-31 06:00:00 15.5 17 Sudeste 23 Sudeste 0 -- -- 47
2017-10-31 05:00:00 13.4 0 Calma 12 Sudeste 0 -- -- 55
2017-10-31 04:00:00 15.6 3 Sudoeste 21 Sudeste 0 -- -- 48
2017-10-31 03:00:00 16.4 7 Este 19 Sudeste 0 -- -- 46
2017-10-31 02:00:00 17.3 13 Sudeste 24 Sudeste 0 -- -- 44
2017-10-31 01:00:00 17.5 15 Sudeste 25 Sudeste 0 -- -- 43
2017-10-31 00:00:00 18.3 15 Sudeste 22 Sudeste 0 -- -- 41
2017-10-30 23:00:00 18.6 10 Sudeste 16 Sudeste 0 -- -- 34
2017-10-30 22:00:00 19.3 8 Nordeste 13 Nordeste 0 -- -- 31
2017-10-30 21:00:00 19.4 6 Nordeste 10 Este 0 -- -- 31
2017-10-30 20:00:00 20.3 6 Este 13 Este 0 -- -- 29
2017-10-30 19:00:00 20.6 7 Este 12 Este 0 -- -- 28
2017-10-30 18:00:00 22.1 5 Nordeste 14 Nordeste 0 -- -- 25
2017-10-30 17:00:00 22.8 8 Nordeste 17 Nordeste 0 -- -- 25
2017-10-30 16:00:00 23.2 8 Nordeste 22 Norte 0 -- -- 26
2017-10-30 15:00:00 23 10 Este 20 Sudeste 0 -- -- 27
2017-10-30 14:00:00 22.4 8 Este 23 Este 0 -- -- 28
2017-10-30 13:00:00 22 12 Este 24 Este 0 -- -- 29
2017-10-30 12:00:00 21 7 Este 17 Este 0 -- -- 30
2017-10-30 11:00:00 19.5 5 Nordeste 13 Sur 0 -- -- 36
2017-10-30 10:00:00 17.4 6 Sur 15 Sudeste 0 -- -- 46
2017-10-30 09:00:00 14.6 4 Sudeste 9 Sudeste 0 -- -- 52
2017-10-30 08:00:00 13.2 6 Sudeste 10 Sudeste 0 -- -- 51
2017-10-30 07:00:00 13.9 3 Sudeste 8 Nordeste 0 -- -- 48
2017-10-30 06:00:00 17.8 6 Este 20 Sudeste 0 -- -- 30
2017-10-30 05:00:00 18.7 13 Sudeste 21 Sudeste 0 -- -- 27
2017-10-30 04:00:00 15.1 2 Sudeste 5 Noroeste 0 -- -- 42
2017-10-30 03:00:00 18 3 Sur 22 Sudeste 0 -- -- 37
2017-10-30 02:00:00 19.2 19 Sudeste 24 Sudeste 0 -- -- 39
2017-10-30 01:00:00 18 7 Sudeste 17 Sudeste 0 -- -- 34
2017-10-30 00:00:00 18.3 8 Sudeste 14 Sudeste 0 -- -- 32
2017-10-29 23:00:00 19.6 5 Nordeste 12 Nordeste 0 -- -- 30
2017-10-29 22:00:00 19.9 7 Nordeste 9 Nordeste 0 -- -- 30
2017-10-29 21:00:00 20.4 3 Norte 11 Norte 0 -- -- 29
2017-10-29 20:00:00 21 7 Norte 12 Norte 0 -- -- 27
2017-10-29 19:00:00 21.5 5 Nordeste 8 Nordeste 0 -- -- 24
2017-10-29 18:00:00 23.7 4 Nordeste 13 Norte 0 -- -- 20
2017-10-29 17:00:00 24.4 6 Norte 18 Nordeste 0 -- -- 19
2017-10-29 16:00:00 24.5 7 Nordeste 17 Norte 0 -- -- 21
2017-10-29 15:00:00 24.4 6 Norte 17 Norte 0 -- -- 22
2017-10-29 14:00:00 23.7 8 Nordeste 18 Nordeste 0 -- -- 23
2017-10-29 13:00:00 22.7 9 Nordeste 17 Norte 0 -- -- 25
2017-10-29 12:00:00 22.3 8 Este 20 Este 0 -- -- 28
2017-10-29 11:00:00 20.2 5 Norte 13 Sur 0 -- -- 42
2017-10-29 10:00:00 18.1 3 Norte 8 Norte 0 -- -- 45
2017-10-29 09:00:00 16.6 0 Calma 23 Sudeste 0 -- -- 49
2017-10-29 08:00:00 16.1 10 Sudeste 21 Sudeste 0 -- -- 50
2017-10-29 07:00:00 14.2 9 Sudeste 14 Sudeste 0 -- -- 54
2017-10-29 06:00:00 14.5 8 Sudeste 13 Sur 0 -- -- 53
2017-10-29 05:00:00 16.1 6 Sur 11 Este 0 -- -- 48
2017-10-29 04:00:00 19.4 10 Sudeste 21 Sudeste 0 -- -- 38
2017-10-29 03:00:00 19.7 15 Sudeste 21 Este 0 -- -- 38
2017-10-29 02:00:00 18.5 2 Sudeste 15 Este 0 -- -- 39
2017-10-29 01:00:00 21.2 13 Sudeste 27 Sudeste 0 -- -- 30
2017-10-29 00:00:00 20.7 13 Sudeste 26 Sudeste 0 -- -- 32
2017-10-28 23:00:00 22.1 19 Sudeste 27 Sudeste 0 -- -- 33
2017-10-28 22:00:00 22.9 6 Este 14 Este 0 -- -- 27
2017-10-28 21:00:00 23.3 6 Este 11 Este 0 -- -- 28
2017-10-28 20:00:00 24 5 Este 17 Este 0 -- -- 28
2017-10-28 19:00:00 25.3 6 Nordeste 21 Nordeste 0 -- -- 26
2017-10-28 18:00:00 25.9 9 Nordeste 19 Nordeste 0 -- -- 26
2017-10-28 17:00:00 25.8 13 Nordeste 26 Nordeste 0 -- -- 26
2017-10-28 16:00:00 25.9 12 Nordeste 23 Norte 0 -- -- 26
2017-10-28 15:00:00 25.1 12 Nordeste 36 Nordeste 0 -- -- 27
2017-10-28 14:00:00 24.1 17 Nordeste 36 Nordeste 0 -- -- 27
2017-10-28 13:00:00 23.3 15 Este 34 Este 0 -- -- 27
2017-10-28 12:00:00 22.5 15 Este 29 Este 0 -- -- 29
2017-10-28 11:00:00 20.9 9 Sudeste 21 Sudeste 0 -- -- 35
2017-10-28 10:00:00 20.8 13 Sudeste 23 Sudeste 0 -- -- 30
2017-10-28 09:00:00 17.5 5 Sudeste 19 Sudeste 0 -- -- 33
2017-10-28 08:00:00 18.1 9 Sudeste 15 Sudeste 0 -- -- 33
2017-10-28 07:00:00 18.2 2 Sudoeste 18 Sudeste 0 -- -- 34
2017-10-28 06:00:00 21.2 13 Sudeste 23 Sudeste 0 -- -- 26
2017-10-28 05:00:00 22 12 Sudeste 22 Sudeste 0 -- -- 24
2017-10-28 04:00:00 23 12 Este 24 Este 0 -- -- 24
2017-10-28 03:00:00 23.7 15 Este 31 Este 0 -- -- 24
2017-10-28 02:00:00 23.6 16 Este 27 Este 0 -- -- 28
2017-10-28 01:00:00 24.2 9 Este 30 Este 0 -- -- 28
2017-10-28 00:00:00 24.4 15 Este 25 Este 0 -- -- 27
2017-10-27 23:00:00 25.4 4 Este 17 Nordeste 0 -- -- 25
2017-10-27 22:00:00 25.7 6 Sudeste 19 Este 0 -- -- 25
2017-10-27 21:00:00 25.9 9 Sudeste 18 Este 0 -- -- 24
2017-10-27 20:00:00 26.6 8 Este 22 Este 0 -- -- 23
2017-10-27 19:00:00 28.1 4 Norte 15 Norte 0 -- -- 24
2017-10-27 18:00:00 28.8 9 Norte 22 Nordeste 0 -- -- 24
2017-10-27 17:00:00 29 12 Nordeste 31 Este 0 -- -- 22
2017-10-27 16:00:00 28.7 9 Este 30 Nordeste 0 -- -- 22
2017-10-27 15:00:00 28.3 10 Este 23 Este 0 -- -- 24
2017-10-27 14:00:00 27.1 12 Este 25 Este 0 -- -- 25
2017-10-27 13:00:00 25.6 9 Este 19 Este 0 -- -- 30
2017-10-27 12:00:00 24.6 4 Sudoeste 10 Sudeste 0 -- -- 33
2017-10-27 11:00:00 21.6 3 Norte 5 Noroeste 0 -- -- 37
2017-10-27 10:00:00 20.1 2 Norte 17 Sudeste 0 -- -- 37
2017-10-27 09:00:00 20.1 15 Sudeste 24 Sudeste 0 -- -- 36
2017-10-27 08:00:00 21.3 12 Sudeste 21 Sudeste 0 -- -- 32
2017-10-27 07:00:00 19 11 Sudeste 17 Sudeste 0 -- -- 40
2017-10-27 06:00:00 19.7 6 Sudeste 8 Sudeste 0 -- -- 38
2017-10-27 05:00:00 19.4 3 Sudeste 15 Este 0 -- -- 39
2017-10-27 04:00:00 21.6 9 Este 13 Sudeste 0 -- -- 33
2017-10-27 03:00:00 20.8 6 Sudeste 9 Sudeste 0 -- -- 34
2017-10-27 02:00:00 22.2 2 Norte 17 Sudeste 0 -- -- 31
2017-10-27 01:00:00 23.4 10 Este 19 Este 0 -- -- 26
2017-10-27 00:00:00 23.4 9 Este 16 Nordeste 0 -- -- 26
2017-10-26 23:00:00 23.5 8 Nordeste 10 Este 0 -- -- 26
2017-10-26 22:00:00 23.6 5 Nordeste 10 Este 0 -- -- 28
2017-10-26 21:00:00 24.4 8 Nordeste 13 Nordeste 0 -- -- 27
2017-10-26 20:00:00 24.8 8 Nordeste 12 Nordeste 0 -- -- 27
2017-10-26 19:00:00 26.3 7 Nordeste 15 Nordeste 0 -- -- 26
2017-10-26 18:00:00 26.9 9 Nordeste 18 Nordeste 0 -- -- 24
2017-10-26 17:00:00 27 8 Nordeste 20 Nordeste 0 -- -- 24
2017-10-26 16:00:00 26.4 11 Nordeste 19 Nordeste 0 -- -- 25
2017-10-26 15:00:00 25.8 9 Nordeste 19 Nordeste 0 -- -- 26
2017-10-26 14:00:00 24.5 10 Nordeste 18 Nordeste 0 -- -- 29
2017-10-26 13:00:00 23.4 10 Nordeste 18 Nordeste 0 -- -- 30
2017-10-26 12:00:00 23 5 Sur 9 Sur 0 -- -- 35
2017-10-26 11:00:00 21.4 0 Calma 6 Sur 0 -- -- 32
2017-10-26 10:00:00 19.5 0 Calma 3 Sur 0 -- -- 38
2017-10-26 09:00:00 17.7 0 Calma 7 Sudeste 0 -- -- 39
2017-10-26 08:00:00 16.9 2 Sudeste 6 Sudeste 0 -- -- 41
2017-10-26 07:00:00 17.5 0 Calma 9 Este 0 -- -- 38
2017-10-26 06:00:00 19 4 Este 9 Nordeste 0 -- -- 35
2017-10-26 05:00:00 18.2 4 Este 13 Sudeste 0 -- -- 37
2017-10-26 04:00:00 19.8 14 Sudeste 22 Sudeste 0 -- -- 34
2017-10-26 03:00:00 20.2 17 Sudeste 24 Sudeste 0 -- -- 34
2017-10-26 02:00:00 21.1 14 Sudeste 20 Sudeste 0 -- -- 32
2017-10-26 01:00:00 21.4 14 Sudeste 18 Sudeste 0 -- -- 30
2017-10-26 00:00:00 21.7 12 Sudeste 18 Sudeste 0 -- -- 27
2017-10-25 23:00:00 21.7 13 Sudeste 20 Sudeste 0 -- -- 30
2017-10-25 22:00:00 21.8 12 Sudeste 20 Sur 0 -- -- 30
2017-10-25 21:00:00 22.6 14 Sudeste 22 Sudeste 0 -- -- 28
2017-10-25 20:00:00 24.1 11 Sudeste 16 Sur 0 -- -- 24
2017-10-25 19:00:00 27.2 10 Sur 20 Sur 0 -- -- 20
2017-10-25 18:00:00 28.8 15 Sur 22 Sudoeste 0 -- -- 18
2017-10-25 17:00:00 29.3 16 Sudoeste 23 Sur 0 -- -- 18
2017-10-25 16:00:00 29.3 18 Sur 28 Sur 0 -- -- 15
2017-10-25 15:00:00 28.7 14 Sur 31 Sur 0 -- -- 20
2017-10-25 14:00:00 27.2 16 Sur 29 Sudeste 0 -- -- 27
2017-10-25 13:00:00 24.8 18 Sudeste 27 Sudeste 0 -- -- 30
2017-10-25 12:00:00 21.7 15 Sudeste 30 Este 0 -- -- 42
2017-10-25 11:00:00 19.6 15 Sudeste 28 Sudeste 0 -- -- 43
2017-10-25 10:00:00 19 12 Sudeste 23 Sudeste 0 -- -- 45
2017-10-25 09:00:00 16.1 10 Sudeste 22 Sudeste 0 -- -- 54
2017-10-25 08:00:00 17.6 8 Sudeste 26 Sudeste 0 -- -- 50
2017-10-25 07:00:00 17.4 5 Sudeste 24 Sudeste 0 -- -- 50
2017-10-25 06:00:00 18.9 8 Sudeste 18 Sudeste 0 -- -- 38
2017-10-25 05:00:00 19 12 Sudeste 25 Sudeste 0 -- -- 35
2017-10-25 04:00:00 18.9 20 Sudeste 27 Sudeste 0 -- -- 38
2017-10-25 03:00:00 19.2 17 Sudeste 26 Sudeste 0 -- -- 39
2017-10-25 02:00:00 19.2 18 Sudeste 25 Sudeste 0 -- -- 46
2017-10-25 01:00:00 19.8 15 Sudeste 22 Sudeste 0 -- -- 46
2017-10-25 00:00:00 20.2 14 Sudeste 20 Sudeste 0 -- -- 43